Time;durP1;ratioP1;P1;durP2;ratioP2;P2;SDS_P1;SDS_P2;PMS_P1;PMS_P2;Temp;Humidity;BMP_temperature;BMP_pressure;BME280_temperature;BME280_humidity;BME280_pressure;Samples;Min_cycle;Max_cycle;Signal;HPM_P1;HPM_P2
2023/08/02 00:01:12;;;;;;;2.73;2.30;;;16.80;99.90;;;;;;6233457;22;20466;-78
2023/08/02 00:03:45;;;;;;;6.00;2.53;;;16.80;99.90;;;;;;6241066;22;20379;-77
2023/08/02 00:06:20;;;;;;;3.03;2.70;;;16.80;99.90;;;;;;6240731;23;20493;-77
2023/08/02 00:08:54;;;;;;;2.80;2.03;;;16.80;99.90;;;;;;6240391;23;20448;-78
2023/08/02 00:11:35;;;;;;;2.23;1.80;;;16.80;99.90;;;;;;6241260;22;20406;-78
2023/08/02 00:14:13;;;;;;;2.80;2.30;;;16.80;99.90;;;;;;6241170;22;20389;-78
2023/08/02 00:16:51;;;;;;;2.70;2.50;;;16.80;99.90;;;;;;6239702;23;20398;-78
2023/08/02 00:19:26;;;;;;;3.83;2.20;;;16.80;99.90;;;;;;6237378;23;20434;-78
2023/08/02 00:22:18;;;;;;;4.27;2.43;;;16.80;99.90;;;;;;6235422;23;20425;-78
2023/08/02 00:24:56;;;;;;;3.90;2.80;;;16.80;99.90;;;;;;6223178;23;20415;-79
2023/08/02 00:27:41;;;;;;;3.57;3.00;;;16.80;99.90;;;;;;6218245;23;20395;-79
2023/08/02 00:30:39;;;;;;;2.50;2.33;;;16.80;99.90;;;;;;6218212;23;20859;-78
2023/08/02 00:33:11;;;;;;;2.33;2.10;;;16.80;99.90;;;;;;6218183;23;20780;-81
2023/08/02 00:36:08;;;;;;;2.63;2.43;;;16.80;99.90;;;;;;6219732;23;20436;-79
2023/08/02 00:38:41;;;;;;;4.33;2.67;;;16.80;99.90;;;;;;6219509;23;20406;-78
2023/08/02 00:41:27;;;;;;;2.93;2.73;;;16.80;99.90;;;;;;6223632;23;20379;-79
2023/08/02 00:44:22;;;;;;;2.97;2.67;;;16.70;99.90;;;;;;6230172;23;20441;-79
2023/08/02 00:47:02;;;;;;;2.17;1.97;;;16.70;99.90;;;;;;6233268;23;20410;-79
2023/08/02 00:49:44;;;;;;;4.90;3.07;;;16.70;99.90;;;;;;6232003;23;20453;-78
2023/08/02 00:52:27;;;;;;;3.67;2.27;;;16.70;99.90;;;;;;6232675;23;20403;-78
2023/08/02 00:55:10;;;;;;;3.70;2.70;;;16.70;99.90;;;;;;6233057;23;20464;-79
2023/08/02 00:58:21;;;;;;;3.43;3.13;;;16.70;99.90;;;;;;6231726;23;20394;-78
2023/08/02 01:01:12;;;;;;;6.67;2.90;;;16.70;99.90;;;;;;6156235;23;20406;-80
2023/08/02 01:07:15;;;;;;;4.00;2.90;;;16.60;99.90;;;;;;6218699;23;20462;-79
2023/08/02 01:10:05;;;;;;;3.80;3.27;;;16.60;99.90;;;;;;6218830;23;20488;-79
2023/08/02 01:16:23;;;;;;;;;;;;;;;;;;;;;
2023/08/02 01:22:02;;;;;;;3.83;2.60;;;16.60;99.90;;;;;;6169985;23;20398;-78
2023/08/02 01:24:41;;;;;;;3.90;2.57;;;16.50;99.90;;;;;;6216581;23;20418;-80
2023/08/02 01:30:30;;;;;;;2.90;2.70;;;16.50;99.90;;;;;;6202508;23;20596;-81
2023/08/02 01:35:56;;;;;;;3.10;2.90;;;16.10;99.90;;;;;;6213883;23;20472;-80
2023/08/02 01:38:48;;;;;;;3.30;2.93;;;16.30;99.90;;;;;;6216538;23;20435;-79
2023/08/02 01:41:55;;;;;;;4.40;3.20;;;16.30;99.90;;;;;;6211496;23;20792;-81
2023/08/02 01:44:56;;;;;;;5.20;3.20;;;16.20;99.90;;;;;;6217892;23;20421;-79
2023/08/02 01:54:20;;;;;;;2.80;2.60;;;16.20;99.90;;;;;;6209089;23;20394;-79
2023/08/02 01:57:03;;;;;;;3.03;2.50;;;16.20;99.90;;;;;;6220449;23;20741;-80
2023/08/02 01:59:45;;;;;;;2.47;2.27;;;16.30;99.90;;;;;;6216883;23;20435;-80
2023/08/02 02:02:33;;;;;;;2.13;1.93;;;16.30;99.90;;;;;;6215502;23;20428;-79
2023/08/02 02:05:23;;;;;;;4.13;2.63;;;16.40;99.90;;;;;;6217019;23;20453;-80
2023/08/02 02:08:22;;;;;;;2.50;2.30;;;16.40;99.90;;;;;;6217955;23;20468;-79
2023/08/02 02:11:22;;;;;;;3.20;2.90;;;16.40;99.90;;;;;;6218482;23;20469;-81
2023/08/02 02:14:30;;;;;;;;;;;;;;;;;;;;;
2023/08/02 02:17:16;;;;;;;2.60;2.33;;;16.40;99.90;;;;;;6203922;23;20398;-79
2023/08/02 02:23:10;;;;;;;2.60;2.40;;;16.40;99.90;;;;;;6215046;23;20419;-79
2023/08/02 02:25:54;;;;;;;2.57;2.30;;;16.40;99.90;;;;;;6113421;23;20430;-79
2023/08/02 02:28:29;;;;;;;4.03;2.53;;;16.10;99.90;;;;;;6221490;23;20418;-79
2023/08/02 02:31:15;;;;;;;4.67;2.67;;;16.40;99.90;;;;;;6221733;23;20440;-78
2023/08/02 02:33:57;;;;;;;3.23;2.43;;;16.60;99.90;;;;;;6222549;23;20504;-79
2023/08/02 02:36:58;;;;;;;2.57;2.37;;;16.40;99.90;;;;;;6221466;23;20454;-79
2023/08/02 02:39:58;;;;;;;2.40;2.07;;;16.40;99.90;;;;;;6194014;23;20421;-79
2023/08/02 02:49:05;;;;;;;3.00;2.73;;;16.40;99.90;;;;;;6154700;23;20495;-79
2023/08/02 02:52:13;;;;;;;2.60;1.80;;;16.40;99.90;;;;;;6209797;23;20520;-80
2023/08/02 02:55:04;;;;;;;3.80;2.63;;;16.40;99.90;;;;;;6223951;23;20508;-80
2023/08/02 02:57:59;;;;;;;3.53;2.23;;;16.50;99.90;;;;;;6212460;23;20414;-79
2023/08/02 03:04:23;;;;;;;2.60;2.37;;;16.50;99.90;;;;;;6171856;23;20489;-78
2023/08/02 03:07:18;;;;;;;2.23;2.13;;;16.50;99.90;;;;;;6107927;23;20433;-79
2023/08/02 03:16:23;;;;;;;;;;;;;;;;;;;;;
2023/08/02 03:19:21;;;;;;;2.30;2.10;;;16.60;99.90;;;;;;6115835;23;20800;-79
2023/08/02 03:22:16;;;;;;;2.60;2.40;;;16.60;99.90;;;;;;6115317;23;20532;-79
2023/08/02 03:28:41;;;;;;;3.33;2.50;;;16.70;99.90;;;;;;5964511;23;20666;-80
2023/08/02 03:31:15;;;;;;;2.47;2.27;;;16.70;99.90;;;;;;6118798;23;20434;-79
2023/08/02 03:33:53;;;;;;;3.80;2.60;;;16.70;99.90;;;;;;6116275;23;20421;-79
2023/08/02 03:36:36;;;;;;;3.13;2.43;;;16.70;99.90;;;;;;6129990;23;20452;-80
2023/08/02 03:39:13;;;;;;;3.00;2.40;;;16.70;99.90;;;;;;6235081;23;20414;-79
2023/08/02 03:41:53;;;;;;;3.93;2.83;;;16.80;99.90;;;;;;6235070;23;20466;-78
2023/08/02 03:44:37;;;;;;;3.00;2.20;;;16.80;99.90;;;;;;6235280;23;20402;-78
2023/08/02 03:47:31;;;;;;;3.30;2.17;;;16.60;99.90;;;;;;6235575;23;20445;-78
2023/08/02 03:56:36;;;;;;;2.80;2.50;;;16.90;99.90;;;;;;6237485;22;20430;-77
2023/08/02 04:02:18;;;;;;;3.50;2.20;;;16.90;99.90;;;;;;6236651;23;20395;-79
2023/08/02 04:04:57;;;;;;;3.40;2.03;;;16.90;99.90;;;;;;6234387;23;20435;-79
2023/08/02 04:07:44;;;;;;;5.60;5.17;;;16.90;99.90;;;;;;6231032;23;20448;-79
2023/08/02 04:10:41;;;;;;;3.47;2.93;;;16.90;99.90;;;;;;6229852;23;20896;-78
2023/08/02 04:13:34;;;;;;;2.93;2.30;;;17.00;99.90;;;;;;6231161;23;20418;-76
2023/08/02 04:16:43;;;;;;;4.20;2.57;;;17.00;99.90;;;;;;6233139;23;20465;-79
2023/08/02 04:19:30;;;;;;;2.00;1.90;;;17.00;99.90;;;;;;6233888;23;20458;-79
2023/08/02 04:22:22;;;;;;;3.17;2.60;;;17.00;99.90;;;;;;6231521;23;20414;-79
2023/08/02 04:25:10;;;;;;;4.40;2.40;;;17.00;99.90;;;;;;6232344;23;20527;-79
2023/08/02 04:27:47;;;;;;;4.03;2.30;;;17.10;99.90;;;;;;6231975;23;20434;-79
2023/08/02 04:30:52;;;;;;;4.53;2.73;;;17.10;99.90;;;;;;6228100;23;20752;-79
2023/08/02 04:33:29;;;;;;;3.23;2.37;;;17.10;99.90;;;;;;6226444;23;20406;-78
2023/08/02 04:36:09;;;;;;;2.93;1.83;;;17.10;99.90;;;;;;6229082;23;20414;-78
2023/08/02 04:42:02;;;;;;;2.80;2.60;;;16.70;99.90;;;;;;6218646;23;20470;-80
2023/08/02 04:44:50;;;;;;;3.60;3.27;;;16.90;99.90;;;;;;6221722;23;20457;-80
2023/08/02 04:47:47;;;;;;;3.57;2.67;;;16.90;99.90;;;;;;6223122;23;20414;-78
2023/08/02 04:53:48;;;;;;;3.40;3.03;;;16.90;99.90;;;;;;6202016;23;20668;-79
2023/08/02 04:56:53;;;;;;;3.23;2.70;;;16.80;99.90;;;;;;6225544;23;20430;-79
2023/08/02 04:59:50;;;;;;;3.70;3.40;;;16.80;99.90;;;;;;6226069;23;20411;-80
2023/08/02 05:05:55;;;;;;;5.13;2.90;;;16.80;99.90;;;;;;6213729;23;20422;-79
2023/08/02 05:08:39;;;;;;;2.67;2.47;;;16.80;99.90;;;;;;6223820;23;20414;-79
2023/08/02 05:11:23;;;;;;;3.40;2.87;;;16.60;99.90;;;;;;6221420;23;20465;-79
2023/08/02 05:14:06;;;;;;;3.20;2.90;;;16.90;99.90;;;;;;6215651;23;20413;-81
2023/08/02 05:16:44;;;;;;;2.87;2.67;;;16.60;99.90;;;;;;6221478;23;20430;-81
2023/08/02 05:19:36;;;;;;;3.87;2.40;;;16.70;99.90;;;;;;6221744;23;20414;-80
2023/08/02 05:29:48;;;;;;;3.37;3.07;;;16.40;99.90;;;;;;6219111;23;20479;-80
2023/08/02 05:36:17;;;;;;;;;;;;;;;;;;;;;
2023/08/02 05:39:18;;;;;;;4.30;3.90;;;16.40;99.90;;;;;;6220899;23;20410;-79
2023/08/02 05:59:37;;;;;;;;;;;;;;;;;;;;;
2023/08/02 06:03:00;;;;;;;4.23;3.50;;;16.30;99.90;;;;;;6116878;23;20421;-80
2023/08/02 06:06:20;;;;;;;4.40;3.87;;;16.40;99.90;;;;;;6225327;23;20662;-81
2023/08/02 06:09:31;;;;;;;5.50;4.40;;;16.00;99.90;;;;;;6228779;23;20414;-80
2023/08/02 06:19:49;;;;;;;;;;;;;;;;;;;;;
2023/08/02 06:23:15;;;;;;;4.47;3.70;;;16.20;99.90;;;;;;6230165;23;20401;-80
2023/08/02 06:47:29;;;;;;;6.30;4.43;;;16.20;99.90;;;;;;5714411;25;20662;-77
2023/08/02 06:57:23;;;;;;;;;;;;;;;;;;;;;
2023/08/02 07:00:23;;;;;;;7.63;5.63;;;16.40;99.90;;;;;;6241081;23;20477;-79
2023/08/02 07:03:07;;;;;;;6.47;4.40;;;16.50;99.90;;;;;;6239600;23;20426;-79
2023/08/02 07:06:17;;;;;;;5.13;4.57;;;16.50;99.90;;;;;;6240767;22;20438;-77
2023/08/02 07:09:16;;;;;;;5.60;4.97;;;16.50;99.90;;;;;;6239705;23;20485;-80
2023/08/02 07:14:59;;;;;;;7.10;5.43;;;16.50;99.90;;;;;;6221761;23;20498;-78
2023/08/02 07:17:33;;;;;;;6.13;5.50;;;16.50;99.90;;;;;;6230359;23;20399;-79
2023/08/02 07:23:14;;;;;;;6.40;5.80;;;16.60;99.90;;;;;;6220592;23;20398;-78
2023/08/02 07:26:09;;;;;;;5.87;5.27;;;16.70;99.90;;;;;;6220703;23;20418;-79
2023/08/02 07:29:24;;;;;;;7.07;5.83;;;16.70;99.90;;;;;;6220172;23;20422;-79
2023/08/02 07:32:21;;;;;;;6.20;5.60;;;16.80;99.90;;;;;;6218161;23;20754;-79
2023/08/02 07:38:20;;;;;;;5.93;5.43;;;16.90;99.90;;;;;;6204652;23;20411;-81
2023/08/02 07:41:27;;;;;;;5.87;5.37;;;16.90;99.90;;;;;;6220207;23;20482;-79
2023/08/02 07:44:04;;;;;;;5.50;5.00;;;16.90;99.90;;;;;;6219259;23;20417;-81
2023/08/02 07:46:39;;;;;;;5.80;5.30;;;16.90;99.90;;;;;;6221296;23;20582;-82
2023/08/02 07:49:26;;;;;;;5.80;5.30;;;17.10;99.90;;;;;;6219931;23;20409;-78
2023/08/02 07:52:05;;;;;;;6.87;5.80;;;17.70;99.90;;;;;;6222280;23;20448;-81
2023/08/02 07:55:02;;;;;;;7.57;5.43;;;17.30;99.90;;;;;;6219330;23;20430;-80
2023/08/02 07:57:40;;;;;;;8.30;6.30;;;17.60;99.90;;;;;;6219720;23;20411;-80
2023/08/02 08:00:37;;;;;;;5.87;5.37;;;17.40;99.90;;;;;;6221220;23;20407;-79
2023/08/02 08:03:20;;;;;;;7.00;5.83;;;17.40;99.90;;;;;;6199397;23;20410;-79
2023/08/02 08:06:14;;;;;;;5.30;4.80;;;17.40;99.90;;;;;;6220826;23;20415;-79
2023/08/02 08:08:58;;;;;;;5.60;5.20;;;17.40;99.90;;;;;;6220779;23;20414;-81
2023/08/02 08:11:42;;;;;;;5.73;4.90;;;17.40;99.90;;;;;;6224436;23;20414;-81
2023/08/02 08:14:21;;;;;;;5.63;4.80;;;17.40;99.90;;;;;;6224468;23;20395;-79
2023/08/02 08:17:03;;;;;;;5.30;4.80;;;17.40;99.90;;;;;;6224010;23;20442;-81
2023/08/02 08:19:52;;;;;;;6.10;5.60;;;17.40;99.90;;;;;;6221827;23;20497;-80
2023/08/02 08:26:08;;;;;;;6.60;4.60;;;17.50;99.90;;;;;;6221699;23;20712;-81
2023/08/02 08:29:17;;;;;;;4.80;4.40;;;17.50;99.90;;;;;;6222897;23;20468;-79
2023/08/02 08:38:33;;;;;;;6.20;3.90;;;17.70;99.90;;;;;;6070744;23;20502;-79
2023/08/02 08:41:39;;;;;;;4.63;4.23;;;17.70;99.90;;;;;;6107084;23;20409;-80
2023/08/02 08:47:37;;;;;;;3.90;3.60;;;17.80;99.90;;;;;;6220305;23;20461;-80
2023/08/02 08:50:35;;;;;;;4.27;3.87;;;17.80;99.90;;;;;;6227365;23;20430;-81
2023/08/02 08:53:25;;;;;;;3.43;3.20;;;17.90;99.90;;;;;;6225834;23;20465;-80
2023/08/02 08:56:29;;;;;;;4.50;4.10;;;17.90;99.90;;;;;;6227084;23;20431;-80
2023/08/02 09:02:59;;;;;;;4.10;3.80;;;17.90;99.90;;;;;;6227324;23;20431;-79
2023/08/02 09:05:36;;;;;;;3.53;3.33;;;17.90;99.90;;;;;;6226971;23;20449;-81
2023/08/02 09:08:25;;;;;;;4.80;4.30;;;17.90;99.90;;;;;;6226077;23;20409;-80
2023/08/02 09:13:48;;;;;;;3.63;3.33;;;17.90;99.90;;;;;;6230888;23;20438;-79
2023/08/02 09:16:28;;;;;;;4.63;4.07;;;17.90;99.90;;;;;;6228010;23;20433;-80
2023/08/02 09:19:06;;;;;;;4.20;3.67;;;17.90;99.90;;;;;;6222670;23;20422;-80
2023/08/02 09:22:02;;;;;;;4.90;3.63;;;17.90;99.90;;;;;;6223922;23;20425;-80
2023/08/02 09:25:02;;;;;;;3.70;3.40;;;18.00;99.90;;;;;;6225199;23;20430;-80
2023/08/02 09:27:40;;;;;;;3.60;3.30;;;18.00;99.90;;;;;;6227444;23;20443;-80
2023/08/02 09:36:48;;;;;;;3.80;3.53;;;18.00;99.90;;;;;;6197739;23;20415;-81
2023/08/02 09:39:55;;;;;;;4.47;4.07;;;18.10;99.90;;;;;;6232391;23;20382;-80
2023/08/02 09:42:29;;;;;;;4.03;3.73;;;18.20;99.90;;;;;;6224560;23;20414;-80
2023/08/02 09:45:18;;;;;;;3.73;3.40;;;18.30;99.90;;;;;;6225376;23;20430;-81
2023/08/02 09:47:55;;;;;;;7.73;4.27;;;18.30;99.90;;;;;;6224634;23;20414;-79
2023/08/02 09:51:03;;;;;;;4.37;3.90;;;18.40;99.90;;;;;;6222668;23;20414;-79
2023/08/02 09:54:09;;;;;;;7.90;4.30;;;18.40;99.90;;;;;;6225302;23;20781;-79
2023/08/02 10:00:11;;;;;;;5.63;4.20;;;18.60;99.90;;;;;;6198928;23;20467;-80
2023/08/02 10:02:51;;;;;;;6.00;5.50;;;18.70;99.90;;;;;;6232748;23;20411;-79
2023/08/02 10:06:03;;;;;;;6.37;4.90;;;18.80;99.90;;;;;;6233656;23;20560;-80
2023/08/02 10:12:52;;;;;;;4.83;4.43;;;19.00;99.90;;;;;;6226474;23;20402;-79
2023/08/02 10:15:29;;;;;;;4.90;4.40;;;19.10;99.90;;;;;;6227138;23;20444;-81
2023/08/02 10:18:11;;;;;;;4.70;4.40;;;19.30;99.90;;;;;;6231389;23;20417;-80
2023/08/02 10:24:08;;;;;;;6.13;4.80;;;19.40;99.90;;;;;;6086492;23;20785;-79
2023/08/02 10:26:44;;;;;;;5.93;5.33;;;19.40;99.90;;;;;;6230199;23;20390;-79
2023/08/02 10:29:42;;;;;;;5.90;5.33;;;19.50;99.90;;;;;;6229919;23;20896;-79
2023/08/02 10:36:01;;;;;;;4.77;4.37;;;19.50;99.90;;;;;;6210157;23;20422;-80
2023/08/02 10:42:11;;;;;;;5.80;4.73;;;19.50;99.90;;;;;;6224854;23;20395;-80
2023/08/02 10:45:29;;;;;;;6.03;5.53;;;19.50;99.90;;;;;;6226105;23;20457;-81
2023/08/02 10:48:31;;;;;;;5.87;5.37;;;19.50;99.90;;;;;;6225313;23;20414;-79
2023/08/02 10:51:29;;;;;;;5.77;5.00;;;19.40;99.90;;;;;;6215245;23;20414;-79
2023/08/02 10:54:21;;;;;;;5.77;5.27;;;19.50;99.90;;;;;;6225160;23;20468;-80
2023/08/02 11:00:42;;;;;;;5.60;5.10;;;19.40;99.90;;;;;;6095803;23;20462;-78
2023/08/02 11:04:09;;;;;;;;;;;;;;;;;;;;;
2023/08/02 11:14:09;;;;;;;7.93;5.10;;;19.80;99.90;;;;;;6009912;23;20465;-80
2023/08/02 11:20:46;;;;;;;5.73;5.10;;;20.00;99.90;;;;;;6007285;23;20420;-78
2023/08/02 11:23:33;;;;;;;6.13;5.63;;;20.00;99.90;;;;;;6144543;23;20414;-81
2023/08/02 11:29:38;;;;;;;5.00;4.60;;;20.10;99.90;;;;;;6231000;23;20394;-80
2023/08/02 11:32:17;;;;;;;7.30;4.80;;;20.20;99.90;;;;;;6233265;23;20360;-81
2023/08/02 11:35:54;;;;;;;;;;;;;;;;;;;;;
2023/08/02 11:38:49;;;;;;;10.40;5.20;;;20.50;99.90;;;;;;6234633;23;20409;-81
2023/08/02 11:41:27;;;;;;;7.10;5.10;;;20.70;99.90;;;;;;6232697;23;20410;-80
2023/08/02 11:44:30;;;;;;;5.30;4.80;;;20.90;99.90;;;;;;6231680;23;20445;-79
2023/08/02 11:47:08;;;;;;;4.50;4.20;;;21.10;99.90;;;;;;6232608;23;20414;-82
2023/08/02 11:49:55;;;;;;;4.80;4.47;;;21.60;99.90;;;;;;6228116;23;20418;-80
2023/08/02 11:52:38;;;;;;;6.20;5.20;;;22.10;99.90;;;;;;6227573;23;20405;-80
2023/08/02 11:55:13;;;;;;;5.30;4.90;;;22.30;99.90;;;;;;6225057;23;20449;-80
2023/08/02 11:57:56;;;;;;;5.20;4.80;;;22.40;99.90;;;;;;6227213;23;20469;-81
2023/08/02 12:00:52;;;;;;;5.03;4.53;;;22.50;99.90;;;;;;6227928;23;20414;-80
2023/08/02 12:04:14;;;;;;;6.10;5.50;;;22.60;99.90;;;;;;6229674;23;20406;-81
2023/08/02 12:10:48;;;;;;;5.10;4.70;;;23.00;99.90;;;;;;6131333;23;20479;-81
2023/08/02 12:19:46;;;;;;;6.40;4.40;;;23.20;99.90;;;;;;6231040;23;20426;-78
2023/08/02 12:22:58;;;;;;;4.00;3.70;;;23.50;99.90;;;;;;6230068;23;20517;-80
2023/08/02 12:25:50;;;;;;;4.40;4.00;;;23.90;99.90;;;;;;6226426;23;20433;-78
2023/08/02 12:28:36;;;;;;;4.73;3.40;;;24.50;99.90;;;;;;6229193;23;20684;-79
2023/08/02 12:31:18;;;;;;;3.80;3.50;;;24.60;99.90;;;;;;6228734;23;20418;-80
2023/08/02 12:34:00;;;;;;;3.23;3.03;;;24.90;99.90;;;;;;6229533;23;20438;-80
2023/08/02 12:36:35;;;;;;;3.70;3.10;;;25.10;99.90;;;;;;6230218;23;20510;-80
2023/08/02 12:39:10;;;;;;;5.00;3.70;;;25.50;99.90;;;;;;6230449;23;20429;-79
2023/08/02 12:45:13;;;;;;;3.90;3.30;;;25.70;99.90;;;;;;6193639;23;20484;-79
2023/08/02 12:48:01;;;;;;;3.50;3.13;;;25.50;99.90;;;;;;6226664;23;20411;-80
2023/08/02 12:50:57;;;;;;;4.03;3.27;;;25.50;99.90;;;;;;6226447;23;20433;-79
2023/08/02 12:53:39;;;;;;;5.87;3.33;;;25.40;99.90;;;;;;6224975;23;20445;-80
2023/08/02 12:56:14;;;;;;;3.43;3.20;;;25.20;99.90;;;;;;6223866;23;20517;-80
2023/08/02 12:58:52;;;;;;;3.10;2.80;;;25.10;99.90;;;;;;6222733;23;20421;-81
2023/08/02 13:01:25;;;;;;;3.00;2.80;;;25.10;99.90;;;;;;6224528;23;20416;-80
2023/08/02 13:04:02;;;;;;;3.57;3.27;;;25.10;99.90;;;;;;6225633;23;20418;-80
2023/08/02 13:06:34;;;;;;;3.07;2.73;;;25.10;99.90;;;;;;6227456;23;20433;-80
2023/08/02 13:09:05;;;;;;;3.80;3.50;;;24.90;99.90;;;;;;6226919;23;20418;-81
2023/08/02 13:11:37;;;;;;;4.10;3.10;;;24.90;99.90;;;;;;6224599;23;20449;-78
2023/08/02 13:14:16;;;;;;;3.83;2.70;;;24.90;99.90;;;;;;6223560;23;20434;-79
2023/08/02 13:16:56;;;;;;;4.13;2.53;;;24.80;99.90;;;;;;6226664;23;20409;-80
2023/08/02 13:22:30;;;;;;;3.20;2.90;;;24.70;99.90;;;;;;6223695;23;20383;-83
2023/08/02 13:25:13;;;;;;;3.17;2.93;;;24.60;99.90;;;;;;6222200;23;20418;-80
2023/08/02 13:28:09;;;;;;;3.40;3.00;;;24.50;99.90;;;;;;6220116;23;20418;-81
2023/08/02 13:30:41;;;;;;;3.20;3.00;;;24.50;99.90;;;;;;6221147;23;20418;-80
2023/08/02 13:33:23;;;;;;;3.30;3.10;;;24.50;99.90;;;;;;6219466;23;20446;-78
2023/08/02 13:36:20;;;;;;;3.37;3.07;;;24.50;99.90;;;;;;6221617;23;20434;-79
2023/08/02 13:39:05;;;;;;;3.33;2.60;;;24.40;99.90;;;;;;6219049;23;20420;-80
2023/08/02 13:41:49;;;;;;;3.60;2.87;;;24.40;99.90;;;;;;6220132;23;20593;-78
2023/08/02 13:44:30;;;;;;;9.37;3.03;;;24.50;99.90;;;;;;6218806;23;20421;-78
2023/08/02 13:47:13;;;;;;;4.10;2.60;;;24.50;99.90;;;;;;6217593;23;20449;-80
2023/08/02 13:50:11;;;;;;;5.10;3.13;;;24.60;99.90;;;;;;6218141;23;20424;-80
2023/08/02 13:53:00;;;;;;;3.90;2.90;;;24.60;99.90;;;;;;6219130;23;20597;-82
2023/08/02 13:59:10;;;;;;;2.50;2.30;;;24.80;99.90;;;;;;6221269;23;20415;-81
2023/08/02 14:02:10;;;;;;;3.03;2.83;;;25.10;99.90;;;;;;6232423;23;20389;-81
2023/08/02 14:05:01;;;;;;;2.77;2.57;;;25.20;99.90;;;;;;6232986;23;20418;-79
2023/08/02 14:07:37;;;;;;;2.10;1.90;;;25.60;99.90;;;;;;6227073;23;20441;-80
2023/08/02 14:10:27;;;;;;;2.73;1.97;;;25.90;99.90;;;;;;6224945;23;20433;-79
2023/08/02 14:12:58;;;;;;;2.27;2.13;;;26.00;99.90;;;;;;6218673;23;20414;-79
2023/08/02 14:15:31;;;;;;;2.30;2.10;;;25.70;99.90;;;;;;6221207;23;20430;-82
2023/08/02 14:18:23;;;;;;;3.23;2.10;;;25.60;99.90;;;;;;6219675;23;20719;-79
2023/08/02 14:21:21;;;;;;;2.47;2.00;;;25.50;99.90;;;;;;6221403;23;20458;-81
2023/08/02 14:26:56;;;;;;;2.17;2.07;;;25.40;99.90;;;;;;6225207;23;20414;-81
2023/08/02 14:29:28;;;;;;;2.33;2.10;;;25.30;99.90;;;;;;6223526;23;20418;-80
2023/08/02 14:38:36;;;;;;;3.13;2.10;;;24.90;99.90;;;;;;6200910;23;20398;-79
2023/08/02 14:41:23;;;;;;;3.57;2.40;;;25.10;99.90;;;;;;6223106;23;20409;-81
2023/08/02 14:44:01;;;;;;;2.57;2.10;;;25.00;99.90;;;;;;6221927;23;20406;-81
2023/08/02 14:46:49;;;;;;;2.50;2.30;;;25.30;99.90;;;;;;6221220;23;20591;-82
2023/08/02 14:49:22;;;;;;;2.60;2.27;;;25.30;99.90;;;;;;6220840;23;20433;-80
2023/08/02 14:51:55;;;;;;;2.90;2.63;;;25.30;99.90;;;;;;6222332;23;20381;-83
2023/08/02 14:54:30;;;;;;;2.90;2.40;;;25.30;99.90;;;;;;6221629;23;20438;-82
2023/08/02 14:57:41;;;;;;;2.60;2.20;;;25.30;99.90;;;;;;6221059;23;20413;-80
2023/08/02 15:00:23;;;;;;;2.50;2.30;;;25.20;99.90;;;;;;6224917;23;20445;-82
2023/08/02 15:03:14;;;;;;;2.87;2.40;;;25.10;99.90;;;;;;6228268;23;20410;-79
2023/08/02 15:05:56;;;;;;;4.03;2.30;;;25.10;99.90;;;;;;6230877;23;20434;-81
2023/08/02 15:08:31;;;;;;;2.40;2.23;;;25.10;99.90;;;;;;6229576;23;20422;-81
2023/08/02 15:11:19;;;;;;;2.40;2.20;;;25.20;99.90;;;;;;6229550;23;20394;-79
2023/08/02 15:13:56;;;;;;;2.40;2.23;;;25.30;99.90;;;;;;6228492;23;20946;-81
2023/08/02 15:16:33;;;;;;;3.17;2.50;;;25.40;99.90;;;;;;6229975;23;20430;-81
2023/08/02 15:19:12;;;;;;;2.37;2.17;;;25.70;99.90;;;;;;6229892;23;20510;-81
2023/08/02 15:21:42;;;;;;;1.73;1.63;;;25.70;99.90;;;;;;6229932;23;20410;-81
2023/08/02 15:24:21;;;;;;;2.80;2.60;;;26.00;99.90;;;;;;6228781;23;20453;-82
2023/08/02 15:27:01;;;;;;;2.30;2.10;;;26.40;99.90;;;;;;6228262;23;20410;-82
2023/08/02 15:29:48;;;;;;;2.37;2.13;;;26.60;99.90;;;;;;6225995;23;20441;-80
2023/08/02 15:32:24;;;;;;;2.67;2.40;;;27.00;99.90;;;;;;6227202;23;20440;-80
2023/08/02 15:34:58;;;;;;;3.70;2.20;;;26.90;99.90;;;;;;6227099;23;20448;-81
2023/08/02 15:37:35;;;;;;;3.07;2.13;;;26.70;99.90;;;;;;6228251;23;20414;-82
2023/08/02 15:40:21;;;;;;;2.50;2.30;;;26.70;99.90;;;;;;6225302;23;20421;-81
2023/08/02 15:42:59;;;;;;;2.30;2.10;;;26.60;99.90;;;;;;6223391;23;20444;-82
2023/08/02 15:45:34;;;;;;;2.50;2.03;;;26.60;99.90;;;;;;6222875;23;20421;-80
2023/08/02 15:48:09;;;;;;;3.80;2.20;;;26.80;99.90;;;;;;6221845;23;20911;-81
2023/08/02 15:53:41;;;;;;;2.67;2.37;;;27.00;99.90;;;;;;6197499;23;20437;-83
2023/08/02 15:56:11;;;;;;;2.87;2.67;;;27.00;99.90;;;;;;6219975;23;20832;-81
2023/08/02 15:58:42;;;;;;;2.43;2.23;;;26.90;99.90;;;;;;6218944;23;20410;-83
2023/08/02 16:04:03;;;;;;;3.17;2.47;;;27.10;99.90;;;;;;6218727;23;20457;-82
2023/08/02 16:06:34;;;;;;;2.67;2.30;;;27.00;99.90;;;;;;6220537;23;20516;-80
2023/08/02 16:09:11;;;;;;;2.53;2.33;;;27.00;99.90;;;;;;6221935;23;20491;-81
2023/08/02 16:11:46;;;;;;;2.47;2.30;;;26.80;99.90;;;;;;6223282;23;20798;-82
2023/08/02 16:17:00;;;;;;;2.20;2.10;;;26.70;99.90;;;;;;6220559;23;20418;-78
2023/08/02 16:19:28;;;;;;;2.60;2.30;;;26.40;99.90;;;;;;6224088;23;20892;-80
2023/08/02 16:21:56;;;;;;;2.73;2.53;;;26.40;99.90;;;;;;6224408;23;20967;-80
2023/08/02 16:24:30;;;;;;;2.63;2.43;;;26.40;99.90;;;;;;6228795;23;20595;-79
2023/08/02 16:27:08;;;;;;;2.70;2.50;;;26.60;99.90;;;;;;6228147;23;20413;-80
2023/08/02 16:29:48;;;;;;;2.97;2.63;;;26.70;99.90;;;;;;6228086;23;20477;-82
2023/08/02 16:32:19;;;;;;;2.73;2.53;;;26.50;99.90;;;;;;6228731;23;20402;-79
2023/08/02 16:34:48;;;;;;;3.07;2.77;;;26.20;99.90;;;;;;6227217;23;20446;-79
2023/08/02 16:37:23;;;;;;;4.73;3.47;;;25.90;99.90;;;;;;6227950;23;20411;-79
2023/08/02 16:40:01;;;;;;;3.00;2.80;;;25.60;99.90;;;;;;6229016;23;20413;-79
2023/08/02 16:42:51;;;;;;;2.63;2.43;;;25.50;99.90;;;;;;6227945;23;20437;-80
2023/08/02 16:45:37;;;;;;;4.73;2.70;;;25.40;99.90;;;;;;6222985;23;20924;-79
2023/08/02 16:48:12;;;;;;;4.50;3.20;;;25.30;99.90;;;;;;6222615;23;20800;-79
2023/08/02 16:50:50;;;;;;;3.90;2.50;;;25.20;99.90;;;;;;6221996;23;20410;-81
2023/08/02 16:53:23;;;;;;;4.27;3.47;;;25.10;99.90;;;;;;6220094;23;20414;-79
2023/08/02 16:55:56;;;;;;;4.53;2.80;;;24.80;99.90;;;;;;6218922;23;20450;-81
2023/08/02 16:58:34;;;;;;;3.30;2.97;;;24.50;99.90;;;;;;6222831;23;20406;-78
2023/08/02 17:01:14;;;;;;;6.03;3.40;;;23.90;99.90;;;;;;6224727;23;20477;-80
2023/08/02 17:03:54;;;;;;;4.07;3.30;;;23.40;99.90;;;;;;6224573;23;20442;-81
2023/08/02 17:06:35;;;;;;;3.70;3.40;;;23.20;99.90;;;;;;6228795;23;20430;-79
2023/08/02 17:09:32;;;;;;;3.73;3.30;;;22.80;99.90;;;;;;6227527;23;20512;-79
2023/08/02 17:15:03;;;;;;;3.60;3.30;;;22.50;99.90;;;;;;6221386;23;20512;-79
2023/08/02 17:17:51;;;;;;;5.70;4.17;;;22.20;99.90;;;;;;6221229;23;20400;-79
2023/08/02 17:20:31;;;;;;;5.33;4.20;;;22.40;99.90;;;;;;6219168;23;20406;-81
2023/08/02 17:23:02;;;;;;;4.80;3.70;;;22.40;99.90;;;;;;6217335;23;20415;-81
2023/08/02 17:25:40;;;;;;;4.33;3.93;;;22.30;99.90;;;;;;6215257;23;20421;-80
2023/08/02 17:31:36;;;;;;;5.17;3.70;;;22.00;99.90;;;;;;6208904;23;20776;-81
2023/08/02 17:34:06;;;;;;;3.77;3.30;;;21.70;99.90;;;;;;6228211;23;20410;-81
2023/08/02 17:36:57;;;;;;;5.13;3.70;;;21.50;99.90;;;;;;6223695;23;20481;-80
2023/08/02 17:39:32;;;;;;;4.83;4.33;;;21.50;99.90;;;;;;6222169;23;20433;-82
2023/08/02 17:42:14;;;;;;;3.87;3.57;;;21.50;99.90;;;;;;6220726;23;20402;-81
2023/08/02 17:48:07;;;;;;;3.37;3.17;;;21.20;99.90;;;;;;6223476;23;20457;-82
2023/08/02 17:57:07;;;;;;;3.80;3.50;;;21.10;99.90;;;;;;6226110;23;20430;-81
2023/08/02 18:00:16;;;;;;;;;;;;;;;;;;;;;
2023/08/02 18:06:21;;;;;;;3.60;3.30;;;21.00;99.90;;;;;;6106841;23;20429;-80
2023/08/02 18:09:16;;;;;;;3.97;3.47;;;20.90;99.90;;;;;;6134879;23;20633;-81
2023/08/02 18:11:59;;;;;;;3.80;3.60;;;20.90;99.90;;;;;;6225496;23;20410;-79
2023/08/02 18:14:36;;;;;;;4.23;3.70;;;20.80;99.90;;;;;;6226808;23;20438;-80
2023/08/02 18:17:10;;;;;;;4.17;3.87;;;20.90;99.90;;;;;;6229504;23;20406;-81
2023/08/02 18:19:49;;;;;;;4.10;3.80;;;20.90;99.90;;;;;;6227023;23;20398;-81
2023/08/02 18:22:31;;;;;;;3.50;3.20;;;20.60;99.90;;;;;;6225785;23;20915;-80
2023/08/02 18:25:14;;;;;;;3.90;3.53;;;20.90;99.90;;;;;;6224561;23;20434;-80
2023/08/02 18:28:08;;;;;;;3.83;3.43;;;20.90;99.90;;;;;;6227808;23;20420;-81
2023/08/02 18:30:48;;;;;;;4.33;3.30;;;20.90;99.90;;;;;;6227325;23;20414;-81
2023/08/02 18:36:20;;;;;;;3.10;2.80;;;20.80;99.90;;;;;;6222499;23;20450;-80
2023/08/02 18:39:14;;;;;;;3.30;3.00;;;20.80;99.90;;;;;;6228251;23;20414;-81
2023/08/02 18:41:47;;;;;;;4.27;3.03;;;20.80;99.90;;;;;;6226579;23;20421;-80
2023/08/02 18:44:19;;;;;;;3.07;2.87;;;20.80;99.90;;;;;;6224097;23;20418;-81
2023/08/02 18:47:03;;;;;;;2.70;2.50;;;20.70;99.90;;;;;;6218322;23;20414;-79
2023/08/02 18:49:38;;;;;;;2.50;2.30;;;20.70;99.90;;;;;;6219009;23;20421;-79
2023/08/02 18:52:14;;;;;;;2.37;2.17;;;20.70;99.90;;;;;;6220349;23;20911;-81
2023/08/02 18:54:50;;;;;;;2.00;1.90;;;20.60;99.90;;;;;;6218568;23;20446;-80